Time;durP1;ratioP1;P1;durP2;ratioP2;P2;SDS_P1;SDS_P2;PMS_P1;PMS_P2;Temp;Humidity;BMP_temperature;BMP_pressure;BME280_temperature;BME280_humidity;BME280_pressure;Samples;Min_cycle;Max_cycle;Signal;HPM_P1;HPM_P2
2023/09/27 00:00:09;;;;;;;6.35;5.47;;;;;;;24.30;54.74;101503.47;5025485;28;20045;-58
2023/09/27 00:02:42;;;;;;;6.15;5.03;;;;;;;24.31;54.72;101502.47;5028512;28;20045;-58
2023/09/27 00:05:11;;;;;;;6.85;5.68;;;;;;;24.31;54.91;101507.91;5027387;28;20407;-58
2023/09/27 00:07:40;;;;;;;7.78;5.55;;;;;;;24.30;55.04;101506.16;5023975;28;20053;-57
2023/09/27 00:10:09;;;;;;;7.20;5.00;;;;;;;24.31;54.81;101510.59;5027496;28;20046;-59
2023/09/27 00:12:39;;;;;;;8.73;6.18;;;;;;;24.31;54.80;101510.59;5028201;28;20045;-59
2023/09/27 00:15:09;;;;;;;6.15;5.07;;;;;;;24.30;54.69;101501.59;5026746;28;20049;-60
2023/09/27 00:17:37;;;;;;;6.97;5.82;;;;;;;24.30;55.06;101508.88;5020058;28;20049;-60
2023/09/27 00:20:09;;;;;;;5.68;5.10;;;;;;;24.30;54.86;101503.47;5028117;28;20045;-59
2023/09/27 00:22:37;;;;;;;6.38;5.28;;;;;;;24.31;54.83;101507.91;5028078;28;20045;-59
2023/09/27 00:25:07;;;;;;;6.22;5.63;;;;;;;24.30;54.94;101503.47;5024130;28;20045;-60
2023/09/27 00:27:37;;;;;;;7.43;6.05;;;;;;;24.30;54.88;101506.16;5024856;28;20045;-60
2023/09/27 00:30:07;;;;;;;6.57;5.45;;;;;;;24.27;54.68;101510.03;5028065;28;20400;-57
2023/09/27 00:32:35;;;;;;;6.38;5.22;;;;;;;24.28;54.92;101506.31;5027877;28;20052;-57
2023/09/27 00:35:03;;;;;;;6.10;5.18;;;;;;;24.27;54.78;101499.22;5024000;28;20049;-57
2023/09/27 00:37:33;;;;;;;6.25;5.65;;;;;;;24.28;54.93;101502.78;5025428;28;20390;-57
2023/09/27 00:40:01;;;;;;;7.22;5.88;;;;;;;24.28;55.02;101510.88;5027606;28;20056;-59
2023/09/27 00:42:28;;;;;;;6.05;5.45;;;;;;;24.27;54.84;101504.63;5027862;28;20057;-60
2023/09/27 00:44:55;;;;;;;6.88;5.70;;;;;;;24.27;55.09;101504.63;5022401;28;20061;-58
2023/09/27 00:47:23;;;;;;;6.68;5.53;;;;;;;24.28;55.08;101508.19;5025780;28;20053;-59
2023/09/27 00:49:52;;;;;;;7.95;5.68;;;;;;;24.29;54.65;101513.44;5027482;28;20053;-58
2023/09/27 00:52:20;;;;;;;7.35;5.40;;;;;;;24.28;54.67;101509.03;5027358;28;20045;-59
2023/09/27 00:54:48;;;;;;;6.60;5.72;;;;;;;24.28;54.77;101506.31;5023601;28;20057;-60
2023/09/27 00:57:16;;;;;;;6.43;5.43;;;;;;;24.28;55.08;101513.59;5025599;28;20042;-58
2023/09/27 00:59:45;;;;;;;7.65;6.07;;;;;;;24.28;54.83;101509.03;5027580;28;20050;-57
2023/09/27 01:02:12;;;;;;;7.38;5.35;;;;;;;24.28;54.67;101500.06;5026696;28;20049;-57
2023/09/27 01:04:40;;;;;;;7.88;5.90;;;;;;;24.29;55.16;101501.75;5023685;28;20053;-58
2023/09/27 01:07:08;;;;;;;7.35;5.72;;;;;;;24.29;55.07;101497.19;5022850;28;20548;-58
2023/09/27 01:09:37;;;;;;;6.97;6.15;;;;;;;24.28;54.86;101497.34;5026608;28;20045;-57
2023/09/27 01:12:05;;;;;;;7.50;6.00;;;;;;;24.29;55.02;101496.34;5026049;28;20522;-57
2023/09/27 01:14:32;;;;;;;6.72;5.72;;;;;;;24.27;54.93;101493.81;5021913;28;20066;-57
2023/09/27 01:17:10;;;;;;;6.38;5.65;;;;;;;24.28;54.75;101489.25;5026039;28;20038;-57
2023/09/27 01:19:38;;;;;;;7.07;6.15;;;;;;;24.28;54.94;101491.94;5027117;28;20049;-58
2023/09/27 01:22:05;;;;;;;6.60;5.82;;;;;;;24.27;54.89;101488.41;5024903;28;20057;-60
2023/09/27 01:24:36;;;;;;;7.75;5.93;;;;;;;24.28;55.12;101489.25;5023599;28;20053;-59
2023/09/27 01:27:08;;;;;;;5.90;5.30;;;;;;;24.26;54.77;101492.06;5025973;28;20045;-59
2023/09/27 01:29:36;;;;;;;7.10;5.20;;;;;;;24.27;55.08;101484.84;5026009;28;20053;-59
2023/09/27 01:32:03;;;;;;;6.68;5.55;;;;;;;24.25;54.81;101492.25;5023312;28;20298;-59
2023/09/27 01:34:31;;;;;;;6.68;5.50;;;;;;;24.26;54.72;101485.81;5024431;28;20046;-60
2023/09/27 01:36:58;;;;;;;7.07;5.53;;;;;;;24.25;54.79;101494.94;5026781;28;20041;-60
2023/09/27 01:39:26;;;;;;;5.75;5.15;;;;;;;24.25;55.09;101495.78;5025425;28;20064;-58
2023/09/27 01:41:54;;;;;;;6.10;5.40;;;;;;;24.25;55.00;101493.09;5023292;28;20046;-58
2023/09/27 01:44:22;;;;;;;5.88;5.10;;;;;;;24.24;54.93;101488.69;5022824;28;20488;-58
2023/09/27 01:46:49;;;;;;;6.50;5.68;;;;;;;24.26;54.95;101499.34;5025192;28;20050;-58
2023/09/27 01:49:17;;;;;;;7.75;6.00;;;;;;;24.24;55.11;101494.09;5025904;28;20057;-59
2023/09/27 01:51:45;;;;;;;6.75;5.78;;;;;;;24.24;54.88;101491.38;5021681;28;20042;-60
2023/09/27 01:54:12;;;;;;;5.93;5.32;;;;;;;24.25;54.72;101489.53;5024512;28;20046;-59
2023/09/27 01:56:40;;;;;;;6.68;5.25;;;;;;;24.24;54.62;101494.09;5009154;28;20046;-59
2023/09/27 01:59:07;;;;;;;5.53;4.80;;;;;;;24.24;54.71;101487.84;5025579;28;20049;-58
2023/09/27 02:01:35;;;;;;;6.32;5.00;;;;;;;24.23;54.64;101489.69;5021358;28;20061;-57
2023/09/27 02:04:02;;;;;;;6.03;5.00;;;;;;;24.24;55.00;101482.44;5023223;28;20054;-58
2023/09/27 02:06:31;;;;;;;6.70;5.38;;;;;;;24.24;54.81;101485.13;5026950;28;20061;-57
2023/09/27 02:08:59;;;;;;;5.78;5.15;;;;;;;24.23;55.04;101481.56;5025802;28;20053;-58
2023/09/27 02:11:26;;;;;;;7.00;5.47;;;;;;;24.24;54.80;101482.44;5021869;28;20480;-57
2023/09/27 02:13:54;;;;;;;7.10;5.68;;;;;;;24.23;55.02;101486.13;5024429;28;20049;-58
2023/09/27 02:16:22;;;;;;;6.70;5.50;;;;;;;24.23;54.71;101481.56;5027006;28;20049;-57
2023/09/27 02:18:49;;;;;;;6.05;5.43;;;;;;;24.24;54.68;101482.44;5025401;28;20054;-58
2023/09/27 02:21:18;;;;;;;6.38;5.43;;;;;;;24.23;54.80;101488.84;5040692;28;20045;-58
2023/09/27 02:23:45;;;;;;;6.18;5.57;;;;;;;24.22;55.03;101482.56;5012054;28;20415;-58
2023/09/27 02:26:13;;;;;;;6.55;5.82;;;;;;;24.22;54.73;101487.97;5030366;28;20056;-58
2023/09/27 02:28:43;;;;;;;7.15;5.88;;;;;;;24.22;54.73;101492.53;5030239;28;20056;-58
2023/09/27 02:31:10;;;;;;;6.78;6.00;;;;;;;24.22;54.91;101495.22;5026360;28;20046;-58
2023/09/27 02:33:38;;;;;;;5.70;5.15;;;;;;;24.22;54.66;101489.81;5027266;28;20058;-58
2023/09/27 02:36:06;;;;;;;6.22;5.63;;;;;;;24.21;54.82;101488.13;5029800;28;20049;-57
2023/09/27 02:38:35;;;;;;;6.45;5.75;;;;;;;24.21;54.87;101491.69;5029488;28;20049;-58
2023/09/27 02:41:04;;;;;;;6.60;5.65;;;;;;;24.22;54.66;101495.22;5024386;28;20504;-58
2023/09/27 02:43:31;;;;;;;6.32;4.93;;;;;;;24.21;54.48;101493.53;5028718;28;20050;-60
2023/09/27 02:45:59;;;;;;;7.43;5.70;;;;;;;24.21;54.53;101493.53;5029873;28;20052;-59
2023/09/27 02:48:26;;;;;;;6.55;5.93;;;;;;;24.20;54.59;101481.88;5027259;28;20053;-59
2023/09/27 02:50:55;;;;;;;6.32;5.30;;;;;;;24.21;54.47;101496.25;5025950;28;20049;-59
2023/09/27 02:53:22;;;;;;;6.95;6.15;;;;;;;24.22;54.85;101493.38;5027139;28;20053;-59
2023/09/27 02:55:50;;;;;;;6.00;5.38;;;;;;;24.23;54.75;101486.97;5029636;28;20045;-59
2023/09/27 02:58:18;;;;;;;6.88;6.18;;;;;;;24.22;54.78;101493.38;5028332;28;20045;-58
2023/09/27 03:00:46;;;;;;;6.70;6.00;;;;;;;24.23;54.68;101491.53;5040718;28;20049;-58
2023/09/27 03:03:13;;;;;;;5.55;5.05;;;;;;;24.21;54.67;101488.97;5028500;28;20510;-58
2023/09/27 03:05:41;;;;;;;6.05;5.45;;;;;;;24.21;54.56;101488.13;5028137;28;20057;-57
2023/09/27 03:08:09;;;;;;;6.40;5.32;;;;;;;24.21;54.75;101486.25;5028188;28;20060;-57
2023/09/27 03:10:40;;;;;;;6.03;5.22;;;;;;;24.21;54.68;101485.41;5024610;28;20049;-58
2023/09/27 03:13:09;;;;;;;6.47;5.88;;;;;;;24.21;54.61;101485.41;5027605;28;20053;-58
2023/09/27 03:15:37;;;;;;;6.93;5.57;;;;;;;24.21;54.91;101483.56;5029105;28;20400;-58
2023/09/27 03:18:05;;;;;;;5.53;4.93;;;;;;;24.21;54.58;101477.31;5027354;28;20368;-57
2023/09/27 03:20:32;;;;;;;6.25;5.25;;;;;;;24.21;54.75;101494.38;5025499;28;20480;-59
2023/09/27 03:23:00;;;;;;;6.50;5.78;;;;;;;24.21;54.77;101493.53;5019453;28;20053;-59
2023/09/27 03:25:28;;;;;;;7.43;5.22;;;;;;;24.20;54.47;101491.84;5027957;28;20064;-59
2023/09/27 03:27:55;;;;;;;6.38;5.78;;;;;;;24.20;54.65;101491.84;5026827;28;20045;-59
2023/09/27 03:30:23;;;;;;;6.60;5.78;;;;;;;24.20;54.68;101494.53;5023966;28;20050;-59
2023/09/27 03:32:51;;;;;;;6.45;5.78;;;;;;;24.18;54.53;101495.56;5031025;28;20061;-58
2023/09/27 03:35:19;;;;;;;5.95;4.85;;;;;;;24.19;54.54;101501.81;5028033;28;20061;-59
2023/09/27 03:37:47;;;;;;;6.88;6.18;;;;;;;24.18;54.70;101500.97;5021553;28;20107;-60
2023/09/27 03:40:14;;;;;;;7.95;5.60;;;;;;;24.19;54.76;101499.09;5044182;28;20412;-57
2023/09/27 03:42:44;;;;;;;7.78;5.60;;;;;;;24.18;54.80;101500.09;5031734;28;20053;-57
2023/09/27 03:45:14;;;;;;;6.93;5.65;;;;;;;24.17;54.61;101496.53;5031851;28;20049;-57
2023/09/27 03:47:44;;;;;;;7.67;6.17;;;;;;;24.17;54.40;101503.78;5023942;28;20049;-57
2023/09/27 03:50:17;;;;;;;6.78;5.55;;;;;;;24.16;54.69;101500.25;5025468;28;20505;-57
2023/09/27 03:52:44;;;;;;;6.35;5.32;;;;;;;24.17;54.70;101501.09;5028917;28;20049;-58
2023/09/27 03:55:12;;;;;;;6.20;5.60;;;;;;;24.16;54.41;101500.25;5031437;28;20053;-57
2023/09/27 03:57:41;;;;;;;5.55;4.95;;;;;;;24.17;54.54;101490.25;5028155;28;20060;-57
2023/09/27 04:00:14;;;;;;;6.18;5.22;;;;;;;24.16;54.41;101489.41;5026102;28;20057;-59
2023/09/27 04:02:44;;;;;;;6.13;5.13;;;;;;;24.17;54.39;101491.13;5027466;28;20050;-59
2023/09/27 04:05:14;;;;;;;6.57;5.40;;;;;;;24.16;54.37;101480.44;5024494;28;20064;-58
2023/09/27 04:07:42;;;;;;;5.95;5.15;;;;;;;24.15;54.71;101490.44;5039855;28;20054;-58
2023/09/27 04:10:10;;;;;;;6.25;5.55;;;;;;;24.16;54.42;101486.72;5028089;28;20053;-59
2023/09/27 04:12:37;;;;;;;7.10;6.13;;;;;;;24.14;54.38;101488.69;5028092;28;20408;-59
2023/09/27 04:15:08;;;;;;;8.13;5.85;;;;;;;24.15;54.69;101495.84;5026457;28;20480;-60
2023/09/27 04:17:38;;;;;;;7.53;5.40;;;;;;;24.14;54.46;101493.25;5024723;28;20088;-60
2023/09/27 04:20:16;;;;;;;5.85;5.25;;;;;;;24.15;54.25;101498.53;5011877;28;20415;-57
2023/09/27 04:22:45;;;;;;;6.35;5.75;;;;;;;24.14;54.52;101490.56;5028031;28;20056;-57
2023/09/27 04:25:12;;;;;;;6.18;5.47;;;;;;;24.14;54.31;101495.97;5024257;28;20049;-57
2023/09/27 04:27:43;;;;;;;8.38;5.97;;;;;;;24.13;54.32;101492.41;5025909;28;20057;-57
2023/09/27 04:30:14;;;;;;;7.97;6.05;;;;;;;24.12;54.41;101498.81;5028261;28;20049;-57
2023/09/27 04:32:43;;;;;;;6.53;5.78;;;;;;;24.13;54.34;101500.53;5026690;28;20052;-58
2023/09/27 04:35:13;;;;;;;6.00;5.18;;;;;;;24.13;54.39;101500.53;5019338;28;20042;-58
2023/09/27 04:37:40;;;;;;;7.35;6.03;;;;;;;24.13;54.42;101497.81;5027276;28;20049;-58
2023/09/27 04:40:11;;;;;;;6.20;5.60;;;;;;;24.13;54.25;101496.97;5027377;28;20045;-57
2023/09/27 04:42:43;;;;;;;6.57;5.70;;;;;;;24.12;54.12;101506.94;5025173;28;20065;-58
2023/09/27 04:45:11;;;;;;;7.00;6.05;;;;;;;24.12;54.24;101495.28;5023965;28;20041;-57
2023/09/27 04:47:44;;;;;;;6.57;5.25;;;;;;;24.12;54.23;101497.97;5027386;28;20056;-58
2023/09/27 04:50:12;;;;;;;6.78;5.80;;;;;;;24.12;54.24;101500.69;5027771;28;20048;-58
2023/09/27 04:52:40;;;;;;;8.68;6.05;;;;;;;24.11;54.48;101494.44;5015445;28;20056;-57
2023/09/27 04:55:10;;;;;;;7.03;5.85;;;;;;;24.12;54.42;101506.09;5024805;28;20061;-57
2023/09/27 04:57:38;;;;;;;7.13;5.57;;;;;;;24.11;54.43;101507.94;5027564;28;20403;-57
2023/09/27 05:00:11;;;;;;;6.10;5.35;;;;;;;24.11;54.21;101502.53;5027755;28;20052;-57
2023/09/27 05:02:39;;;;;;;6.32;5.63;;;;;;;24.11;54.29;101516.06;5023841;28;20504;-57
2023/09/27 05:05:08;;;;;;;7.38;6.40;;;;;;;24.11;54.29;101516.06;5025804;28;20515;-57
2023/09/27 05:07:35;;;;;;;7.25;5.78;;;;;;;24.10;54.30;101511.63;5027139;28;20049;-56
2023/09/27 05:10:03;;;;;;;6.25;5.60;;;;;;;24.10;54.26;101510.78;5026218;28;20049;-59
2023/09/27 05:12:31;;;;;;;7.55;5.90;;;;;;;24.10;54.07;101511.63;5023223;28;20050;-59
2023/09/27 05:14:58;;;;;;;7.07;5.68;;;;;;;24.09;54.26;101507.22;5026162;28;20046;-59
2023/09/27 05:17:26;;;;;;;6.40;5.68;;;;;;;24.10;54.12;101508.94;5027206;28;20045;-59
2023/09/27 05:19:53;;;;;;;7.90;5.85;;;;;;;24.11;54.02;101504.41;5026069;28;20050;-56
2023/09/27 05:22:21;;;;;;;7.13;6.03;;;;;;;24.11;54.35;101512.50;5023573;28;20046;-55
2023/09/27 05:24:48;;;;;;;6.47;5.15;;;;;;;24.11;54.56;101516.06;5025632;28;20045;-56
2023/09/27 05:27:15;;;;;;;6.43;5.68;;;;;;;24.11;54.21;101518.78;5027155;28;20045;-57
2023/09/27 05:29:43;;;;;;;6.20;5.60;;;;;;;24.11;54.41;101518.78;5026132;28;20046;-58
2023/09/27 05:32:10;;;;;;;7.55;5.90;;;;;;;24.11;54.53;101529.59;5026941;28;20053;-58
2023/09/27 05:34:37;;;;;;;6.00;5.35;;;;;;;24.11;54.43;101531.44;5032348;28;20479;-59
2023/09/27 05:37:05;;;;;;;6.22;5.63;;;;;;;24.10;54.08;101530.56;5031721;28;20041;-59
2023/09/27 05:39:32;;;;;;;6.00;5.40;;;;;;;24.10;54.17;101533.28;4991842;28;20042;-54
2023/09/27 05:41:59;;;;;;;6.25;5.53;;;;;;;24.10;54.17;101532.44;4992030;28;20399;-56
2023/09/27 05:44:27;;;;;;;6.85;5.72;;;;;;;24.08;54.01;101532.59;4992633;28;20050;-57
2023/09/27 05:46:55;;;;;;;7.45;5.53;;;;;;;24.10;54.40;101532.44;4992563;28;20053;-57
2023/09/27 05:49:22;;;;;;;8.32;6.57;;;;;;;24.09;54.45;101528.03;4991660;28;20042;-58
2023/09/27 05:51:49;;;;;;;7.68;6.03;;;;;;;24.09;54.18;101528.88;4992383;28;20042;-58
2023/09/27 05:54:19;;;;;;;6.57;5.50;;;;;;;24.08;54.44;101529.88;4992429;28;20050;-59
2023/09/27 05:56:51;;;;;;;6.00;5.18;;;;;;;24.09;54.19;101528.03;4996388;28;20049;-59
2023/09/27 05:59:19;;;;;;;6.20;5.60;;;;;;;24.09;54.35;101533.44;4994827;28;20049;-56
2023/09/27 06:01:47;;;;;;;7.53;5.80;;;;;;;24.09;54.31;101536.13;4987829;28;20397;-56
2023/09/27 06:04:14;;;;;;;8.90;5.90;;;;;;;24.08;54.00;101532.59;4990929;28;20046;-56
2023/09/27 06:06:42;;;;;;;6.35;5.38;;;;;;;24.09;54.04;101537.00;4989250;28;20061;-56
2023/09/27 06:09:09;;;;;;;6.68;5.50;;;;;;;24.09;54.41;101538.84;4988574;28;20050;-58
2023/09/27 06:11:36;;;;;;;6.28;5.68;;;;;;;24.09;54.39;101552.38;4988014;28;20045;-59
2023/09/27 06:14:10;;;;;;;7.45;5.80;;;;;;;24.10;53.95;101546.81;4990660;28;20057;-59
2023/09/27 06:16:39;;;;;;;8.18;5.95;;;;;;;24.10;54.24;101548.66;4991374;28;20061;-59
2023/09/27 06:19:08;;;;;;;6.82;6.13;;;;;;;24.10;54.30;101552.22;4988330;28;20046;-58
2023/09/27 06:21:35;;;;;;;6.45;5.85;;;;;;;24.11;54.28;101551.25;4988317;28;20058;-59
2023/09/27 06:24:05;;;;;;;8.73;5.80;;;;;;;24.12;54.06;101563.75;4991019;28;20054;-58
2023/09/27 06:26:32;;;;;;;6.00;4.90;;;;;;;24.11;54.26;101562.06;4990939;28;20046;-59
2023/09/27 06:28:59;;;;;;;6.82;5.20;;;;;;;24.12;54.09;101560.19;4987827;28;20062;-54
2023/09/27 06:31:29;;;;;;;6.18;5.43;;;;;;;24.13;54.42;101572.72;4988351;28;20057;-55
2023/09/27 06:33:56;;;;;;;6.20;4.57;;;;;;;24.14;54.29;101571.72;4990820;28;20050;-54
2023/09/27 06:36:27;;;;;;;6.75;5.38;;;;;;;24.13;54.00;101576.28;4990746;28;20058;-56
2023/09/27 06:38:54;;;;;;;7.35;5.85;;;;;;;24.14;54.31;101577.97;5015350;28;20073;-55
2023/09/27 06:41:22;;;;;;;6.85;5.35;;;;;;;24.14;54.28;101572.56;5027806;28;20442;-56
2023/09/27 06:43:49;;;;;;;7.20;5.85;;;;;;;24.16;54.27;101576.00;5029768;28;20053;-58
2023/09/27 06:46:18;;;;;;;6.70;5.53;;;;;;;24.15;54.18;101577.00;5034657;28;20041;-59
2023/09/27 06:48:46;;;;;;;6.70;5.13;;;;;;;24.17;54.03;101576.84;5026257;28;20050;-58
2023/09/27 06:51:14;;;;;;;8.10;5.75;;;;;;;24.16;54.34;101583.25;5028032;28;20048;-58
2023/09/27 06:53:42;;;;;;;7.05;5.25;;;;;;;24.18;54.55;101586.66;5034072;28;20049;-58
2023/09/27 06:56:10;;;;;;;6.88;5.10;;;;;;;24.17;54.56;101577.69;5029396;28;20495;-58
2023/09/27 06:58:37;;;;;;;6.25;5.30;;;;;;;24.17;54.26;101577.69;5025804;28;20445;-61
2023/09/27 07:01:05;;;;;;;6.43;5.18;;;;;;;24.18;54.47;101584.84;5027572;28;20057;-61
2023/09/27 07:03:34;;;;;;;6.70;5.70;;;;;;;24.20;54.43;101594.66;5028235;28;20060;-61
2023/09/27 07:06:02;;;;;;;6.53;5.47;;;;;;;24.22;54.14;101587.22;5028658;28;20050;-61
2023/09/27 07:08:30;;;;;;;6.50;5.30;;;;;;;24.24;54.56;101594.22;5029067;28;20052;-58
2023/09/27 07:11:08;;;;;;;6.43;5.00;;;;;;;24.25;54.46;101590.50;5029249;28;20048;-59
2023/09/27 07:13:40;;;;;;;7.72;5.78;;;;;;;24.26;54.33;101596.75;5034288;28;20041;-59
2023/09/27 07:16:20;;;;;;;7.10;5.78;;;;;;;24.24;54.42;101586.09;5032528;28;20508;-58
2023/09/27 07:18:48;;;;;;;6.22;5.55;;;;;;;24.24;54.08;101580.69;5029440;28;20049;-59
2023/09/27 07:21:23;;;;;;;5.95;4.85;;;;;;;24.25;54.05;101589.66;5028112;28;20046;-59
2023/09/27 07:23:51;;;;;;;7.05;5.43;;;;;;;24.25;54.30;101589.66;5028009;28;20049;-59
2023/09/27 07:26:19;;;;;;;7.20;5.63;;;;;;;24.23;54.36;101584.38;5021288;28;20057;-59
2023/09/27 07:28:47;;;;;;;9.38;5.72;;;;;;;24.24;54.20;101580.69;5028410;28;20049;-59
2023/09/27 07:31:16;;;;;;;6.22;5.40;;;;;;;24.23;54.40;101575.44;5028940;28;20076;-59
2023/09/27 07:33:45;;;;;;;6.97;5.47;;;;;;;24.24;54.02;101582.53;5026887;28;20049;-59
2023/09/27 07:36:13;;;;;;;7.70;5.15;;;;;;;24.25;54.04;101586.94;5025146;28;20045;-56
2023/09/27 07:38:40;;;;;;;6.70;5.20;;;;;;;24.24;54.20;101583.38;5023105;28;20054;-56
2023/09/27 07:41:11;;;;;;;8.80;6.85;;;;;;;24.24;54.11;101586.09;5015742;28;20046;-56
2023/09/27 07:43:38;;;;;;;11.90;8.88;;;;;;;24.21;53.74;101586.38;5017910;28;20050;-56
2023/09/27 07:46:06;;;;;;;10.95;8.07;;;;;;;24.18;53.91;101590.25;5024415;28;20046;-58
2023/09/27 07:48:39;;;;;;;9.07;7.88;;;;;;;24.16;53.79;101603.03;5013234;28;20476;-53
2023/09/27 07:51:14;;;;;;;10.82;8.27;;;;;;;24.15;53.93;101589.69;5013757;28;20038;-56
2023/09/27 07:53:41;;;;;;;9.50;7.43;;;;;;;24.14;54.07;101596.06;5021273;28;20416;-57
2023/09/27 07:56:21;;;;;;;8.63;7.57;;;;;;;24.13;53.79;101597.91;5030353;28;20045;-53
2023/09/27 07:58:51;;;;;;;9.63;7.78;;;;;;;24.13;53.91;101597.06;5030391;28;20045;-58
2023/09/27 08:01:23;;;;;;;9.10;7.28;;;;;;;24.14;54.06;101596.91;5027986;28;20041;-59
2023/09/27 08:03:52;;;;;;;8.48;7.22;;;;;;;24.16;54.07;101594.09;5029804;28;20392;-54
2023/09/27 08:06:20;;;;;;;9.90;7.95;;;;;;;24.17;54.00;101595.78;5030186;28;20049;-59
2023/09/27 08:08:51;;;;;;;9.00;7.68;;;;;;;24.17;54.01;101598.47;5030596;28;20045;-63
2023/09/27 08:11:19;;;;;;;8.90;7.88;;;;;;;24.17;53.79;101596.63;5020300;28;20049;-62
2023/09/27 08:13:46;;;;;;;8.82;7.20;;;;;;;24.19;53.83;101599.22;5025437;28;20412;-62
2023/09/27 08:16:14;;;;;;;8.13;6.70;;;;;;;24.20;53.90;101586.53;5030604;28;20037;-62
2023/09/27 08:18:42;;;;;;;9.52;6.70;;;;;;;24.21;53.80;101590.94;5029271;28;20072;-62
2023/09/27 08:21:10;;;;;;;11.15;7.20;;;;;;;24.22;54.05;101592.63;5029610;28;20045;-61
2023/09/27 08:23:39;;;;;;;9.38;6.38;;;;;;;24.23;54.16;101588.94;5026193;28;20423;-60
2023/09/27 08:26:12;;;;;;;6.88;5.78;;;;;;;24.24;54.21;101585.25;5029949;28;20049;-60
2023/09/27 08:28:40;;;;;;;7.57;6.75;;;;;;;24.24;54.38;101582.53;5028956;28;20054;-60
2023/09/27 08:31:08;;;;;;;7.22;6.25;;;;;;;24.23;54.06;101581.69;5027173;28;20042;-61
2023/09/27 08:33:35;;;;;;;9.30;7.25;;;;;;;24.25;54.22;101581.53;5025545;28;20042;-60
2023/09/27 08:36:03;;;;;;;8.57;7.32;;;;;;;24.26;54.26;101584.06;5026555;28;20046;-60
2023/09/27 08:38:30;;;;;;;11.10;8.90;;;;;;;24.24;54.61;101585.25;5032598;28;20052;-58
2023/09/27 08:40:58;;;;;;;10.95;9.18;;;;;;;24.25;54.18;101589.66;5030261;28;20049;-56
2023/09/27 08:43:28;;;;;;;10.85;8.80;;;;;;;24.25;54.43;101584.22;5033020;28;20060;-57
2023/09/27 08:45:56;;;;;;;9.27;7.82;;;;;;;24.25;54.38;101586.94;5020691;28;20037;-57
2023/09/27 08:48:24;;;;;;;10.70;7.82;;;;;;;24.24;54.20;101587.94;5033122;28;20530;-59
2023/09/27 08:50:54;;;;;;;8.70;7.28;;;;;;;24.23;53.96;101581.69;5005856;28;20038;-57
2023/09/27 08:53:22;;;;;;;8.23;7.38;;;;;;;24.23;53.99;101587.09;5032894;28;20052;-56
2023/09/27 08:55:50;;;;;;;7.40;6.55;;;;;;;24.24;54.31;101577.13;5031459;28;20045;-58
2023/09/27 08:58:24;;;;;;;9.40;6.88;;;;;;;24.25;54.05;101571.56;5033282;28;20041;-56
2023/09/27 09:00:52;;;;;;;8.07;6.45;;;;;;;24.25;54.03;101570.69;5030595;28;20045;-61
2023/09/27 09:03:20;;;;;;;8.93;6.82;;;;;;;24.28;54.14;101570.41;5030217;28;20049;-61
2023/09/27 09:05:48;;;;;;;7.97;6.40;;;;;;;24.26;54.40;101565.13;5030162;28;20042;-60
2023/09/27 09:08:16;;;;;;;8.50;6.60;;;;;;;24.26;54.38;101567.84;5030609;28;20049;-60
2023/09/27 09:10:59;;;;;;;;;;;;;;;24.25;54.01;101570.69;5028918;28;20057;-60
2023/09/27 09:13:27;;;;;;;9.35;6.88;;;;;;;24.25;54.33;101565.28;5029876;28;20390;-61
2023/09/27 09:15:54;;;;;;;9.80;7.15;;;;;;;24.25;54.10;101560.72;5030137;28;20038;-60
2023/09/27 09:18:31;;;;;;;8.40;6.88;;;;;;;24.26;54.06;101553.47;5028952;28;20053;-58
2023/09/27 09:21:08;;;;;;;9.88;6.95;;;;;;;24.26;54.30;101558.88;5015517;28;20412;-57
2023/09/27 09:23:36;;;;;;;7.32;6.03;;;;;;;24.26;54.25;101556.16;5030254;28;20385;-57
2023/09/27 09:26:06;;;;;;;6.95;5.93;;;;;;;24.25;54.14;101563.44;5022844;28;20052;-56
2023/09/27 09:28:35;;;;;;;7.45;6.25;;;;;;;24.26;54.05;101557.00;5020750;28;20049;-58
2023/09/27 09:31:03;;;;;;;8.02;6.85;;;;;;;24.27;54.08;101558.75;5030103;28;20037;-57
2023/09/27 09:33:36;;;;;;;8.63;6.28;;;;;;;24.27;54.09;101557.91;5021458;28;20049;-61
2023/09/27 09:36:04;;;;;;;8.43;6.65;;;;;;;24.28;53.96;101563.16;5028074;28;20045;-60
2023/09/27 09:38:34;;;;;;;7.60;6.40;;;;;;;24.29;54.33;101559.44;5028340;28;20068;-58
2023/09/27 09:41:02;;;;;;;7.85;6.22;;;;;;;24.30;53.97;101560.28;5029285;28;20046;-58
2023/09/27 09:43:29;;;;;;;7.40;6.40;;;;;;;24.28;54.15;101557.75;5027594;28;20049;-58
2023/09/27 09:45:57;;;;;;;7.80;5.55;;;;;;;24.29;53.88;101564.84;5026812;28;20045;-57
2023/09/27 09:48:25;;;;;;;7.68;6.13;;;;;;;24.28;53.58;101554.19;5027692;28;20049;-60
2023/09/27 09:51:07;;;;;;;6.55;5.80;;;;;;;24.28;53.89;101546.06;5015074;28;20520;-60
2023/09/27 09:53:40;;;;;;;7.82;6.03;;;;;;;24.28;53.56;101555.03;5019875;28;20377;-60
2023/09/27 09:56:10;;;;;;;7.95;6.45;;;;;;;24.28;53.47;101557.75;5026685;28;20056;-60
2023/09/27 09:58:46;;;;;;;8.82;6.00;;;;;;;24.28;53.80;101556.88;5029018;28;20488;-60
2023/09/27 10:01:19;;;;;;;7.70;5.93;;;;;;;24.28;53.77;101549.63;5026400;28;20515;-60
2023/09/27 10:03:51;;;;;;;7.10;5.38;;;;;;;24.28;53.32;101543.34;5027845;28;20049;-62
2023/09/27 10:06:19;;;;;;;7.30;5.95;;;;;;;24.28;53.47;101546.06;5027827;28;20050;-60
2023/09/27 10:09:06;;;;;;;8.38;5.30;;;;;;;24.29;53.71;101539.66;5026875;28;20053;-60
2023/09/27 10:11:36;;;;;;;7.20;5.40;;;;;;;24.29;53.70;101532.38;5026498;28;20045;-61
2023/09/27 10:14:05;;;;;;;5.65;5.05;;;;;;;24.29;53.58;101535.09;5013443;28;20411;-60
2023/09/27 10:16:33;;;;;;;6.18;5.18;;;;;;;24.30;53.47;101542.19;5028229;28;20050;-60
2023/09/27 10:19:00;;;;;;;7.22;5.38;;;;;;;24.28;53.50;101536.09;5026407;28;20064;-60
2023/09/27 10:21:28;;;;;;;7.47;5.00;;;;;;;24.29;53.22;101529.66;5026972;28;20050;-60
2023/09/27 10:23:58;;;;;;;5.97;5.38;;;;;;;24.29;53.24;101531.53;5028445;28;20491;-62
2023/09/27 10:26:37;;;;;;;6.00;5.10;;;;;;;24.32;53.13;101526.69;5032052;28;20052;-60
2023/09/27 10:29:13;;;;;;;7.68;5.28;;;;;;;24.40;53.21;101539.50;5025046;28;20060;-61
2023/09/27 10:32:16;;;;;;;9.20;4.63;;;;;;;24.42;52.64;101537.50;5031958;28;20038;-63
2023/09/27 10:34:43;;;;;;;8.38;6.13;;;;;;;24.41;52.08;101542.06;5031927;28;20053;-62
2023/09/27 10:37:10;;;;;;;8.48;6.35;;;;;;;24.38;51.95;101538.78;5032097;28;20061;-63
2023/09/27 10:40:17;;;;;;;8.68;6.10;;;;;;;24.38;51.72;101541.50;5030584;28;20164;-65
2023/09/27 10:42:45;;;;;;;;;;;;;;;24.35;51.56;101534.50;5028890;28;20507;-60
2023/09/27 10:45:12;;;;;;;7.45;5.57;;;;;;;24.38;51.64;101538.78;5030898;28;19954;-61
2023/09/27 10:47:40;;;;;;;7.60;5.63;;;;;;;24.38;51.55;101530.66;5033352;28;20080;-62
2023/09/27 10:50:10;;;;;;;9.23;6.10;;;;;;;24.38;51.64;101528.81;5035530;28;20045;-62
2023/09/27 10:52:39;;;;;;;7.40;6.07;;;;;;;24.36;51.34;101533.50;5002783;28;20061;-61
2023/09/27 10:55:12;;;;;;;10.73;7.20;;;;;;;24.35;51.08;101520.97;5029826;28;20061;-62
2023/09/27 10:57:41;;;;;;;9.57;6.68;;;;;;;24.33;51.23;101522.13;5034799;28;20065;-61
2023/09/27 11:00:12;;;;;;;8.55;6.50;;;;;;;24.33;51.21;101516.69;5034921;28;20483;-60
2023/09/27 11:02:41;;;;;;;8.13;6.38;;;;;;;24.35;51.26;101517.41;5034227;28;20053;-60
2023/09/27 11:05:09;;;;;;;7.38;5.65;;;;;;;24.36;51.33;101514.56;5034814;28;20053;-61
2023/09/27 11:07:44;;;;;;;9.70;6.35;;;;;;;24.36;51.27;101521.81;5035257;28;20045;-61
2023/09/27 11:10:33;;;;;;;8.05;6.68;;;;;;;24.35;51.05;101503.88;5035353;28;20049;-63
2023/09/27 11:13:11;;;;;;;8.80;7.43;;;;;;;24.33;51.30;101501.31;5034699;28;20414;-61
2023/09/27 11:15:41;;;;;;;10.93;6.78;;;;;;;24.33;50.81;101493.19;5035237;28;20057;-61
2023/09/27 11:18:09;;;;;;;7.43;6.63;;;;;;;24.33;51.03;101489.63;5034550;28;20045;-60
2023/09/27 11:20:39;;;;;;;7.80;5.82;;;;;;;24.33;50.99;101486.94;5034535;28;20045;-57
2023/09/27 11:23:08;;;;;;;8.23;6.70;;;;;;;24.33;50.93;101482.38;5034569;28;20045;-55
2023/09/27 11:25:40;;;;;;;9.55;5.80;;;;;;;24.34;50.77;101473.25;5035472;28;20045;-57
2023/09/27 11:28:14;;;;;;;6.90;5.88;;;;;;;24.34;50.86;101473.25;5032160;28;20052;-57
2023/09/27 11:30:42;;;;;;;6.65;5.93;;;;;;;24.35;51.16;101471.41;5034761;28;20050;-60
2023/09/27 11:33:13;;;;;;;7.80;6.22;;;;;;;24.35;50.95;101468.72;5034894;28;20041;-60